96D

Walhalla Municipal Airport

Walhalla, North Dakota, USA
METAR K96D 171435Z AUTO 00000KT 10SM CLR 15/15 A3015 RMK AO2
Observed Flight Rules
Aug-17 @ 14:35 UTC (23 minutes ago) Visual Flight Rules
Visibility Clouds
10 miles
  • Clear skies
Temperatures Readings
Current 15°C / 59°F
Dewpoint 15°C / 59°F
Humidity 100%
Altimeter 30.15" Hg
Pressure 1021 hPa
Elevation 290
METAR K96D 171435Z AUTO 00000KT 10SM CLR 15/15 A3015 RMK AO2
Observed Flight Rules
Aug-17 @ 14:35 UTC
(23 minutes ago)
VFR
Clouds
  • Clear skies
Temperature Dewpoint
15°C / 59°F 15°C / 59°F
Humidity Altimeter Pressure
100% 30.15" Hg 1021 hPa